Time;durP1;ratioP1;P1;durP2;ratioP2;P2;SDS_P1;SDS_P2;PMS_P1;PMS_P2;Temp;Humidity;BMP_temperature;BMP_pressure;BME280_temperature;BME280_humidity;BME280_pressure;Samples;Min_cycle;Max_cycle;Signal;HPM_P1;HPM_P2
2022/09/23 00:00:09;;;;;;;38.13;7.05;;;;;;;7.30;100.00;98332.50;5028746;28;20029;-61
2022/09/23 00:02:34;;;;;;;33.28;6.47;;;;;;;6.89;100.00;98331.63;5034322;28;20029;-62
2022/09/23 00:05:00;;;;;;;34.55;6.60;;;;;;;6.85;100.00;98340.38;5038035;28;20043;-60
2022/09/23 00:07:25;;;;;;;26.00;5.18;;;;;;;7.78;100.00;98332.22;5037923;28;20033;-60
2022/09/23 00:09:50;;;;;;;41.63;7.47;;;;;;;7.46;100.00;98331.25;5037235;28;20036;-60
2022/09/23 00:12:16;;;;;;;40.65;7.25;;;;;;;6.88;100.00;98337.72;5032845;28;20093;-59
2022/09/23 00:14:42;;;;;;;35.58;6.90;;;;;;;7.06;100.00;98333.91;5037244;28;20025;-59
2022/09/23 00:17:07;;;;;;;33.42;6.97;;;;;;;7.18;100.00;98333.59;5036377;28;20059;-59
2022/09/23 00:19:33;;;;;;;26.65;5.97;;;;;;;7.44;100.00;98339.94;5034407;28;20033;-59
2022/09/23 00:21:58;;;;;;;41.78;7.65;;;;;;;6.85;100.00;98338.63;5035524;28;20044;-59
2022/09/23 00:24:23;;;;;;;38.10;6.68;;;;;;;7.15;100.00;98336.28;5038316;28;20029;-61
2022/09/23 00:26:49;;;;;;;28.65;6.47;;;;;;;6.69;100.00;98327.72;5054515;28;20044;-60
2022/09/23 00:29:15;;;;;;;37.38;7.57;;;;;;;6.68;100.00;98331.19;5038958;28;20666;-61
2022/09/23 00:31:40;;;;;;;28.10;5.95;;;;;;;6.81;100.00;98330.94;5038900;28;20124;-59
2022/09/23 00:34:06;;;;;;;36.92;7.40;;;;;;;6.60;100.00;98330.50;5036620;28;20028;-60
2022/09/23 00:36:31;;;;;;;35.45;6.93;;;;;;;6.94;100.00;98332.41;5039321;28;20118;-60
2022/09/23 00:38:56;;;;;;;34.90;6.28;;;;;;;7.23;100.00;98326.59;5039032;28;20028;-57
2022/09/23 00:41:22;;;;;;;39.80;7.22;;;;;;;7.19;100.00;98324.09;5038426;28;20038;-58
2022/09/23 00:43:54;;;;;;;33.85;7.65;;;;;;;7.31;100.00;98313.44;5039397;28;20047;-58
2022/09/23 00:46:30;;;;;;;36.75;7.00;;;;;;;7.30;100.00;98316.94;5038344;28;20083;-58
2022/09/23 00:49:01;;;;;;;34.40;7.03;;;;;;;6.94;100.00;98319.44;5040294;28;20017;-59
2022/09/23 00:51:33;;;;;;;36.63;6.65;;;;;;;7.37;100.00;98318.50;5037635;28;20040;-59
2022/09/23 00:54:00;;;;;;;36.72;7.65;;;;;;;7.03;100.00;98315.78;5039699;28;20032;-60
2022/09/23 00:56:26;;;;;;;37.00;7.45;;;;;;;7.08;100.00;98299.25;5039796;28;20064;-59
2022/09/23 00:58:52;;;;;;;31.95;6.25;;;;;;;7.77;100.00;98314.94;5039092;28;20017;-59
2022/09/23 01:01:19;;;;;;;28.58;6.40;;;;;;;7.43;100.00;98307.13;5038027;28;20067;-58
2022/09/23 01:03:46;;;;;;;31.83;6.20;;;;;;;7.71;100.00;98308.16;5039823;28;20025;-59
2022/09/23 01:06:12;;;;;;;33.08;6.65;;;;;;;7.35;100.00;98304.69;5039525;28;20033;-58
2022/09/23 01:08:39;;;;;;;34.13;6.85;;;;;;;7.31;100.00;98303.88;5038296;28;20041;-59
2022/09/23 01:11:41;;;;;;;32.25;6.38;;;;;;;7.25;100.00;98303.19;5037499;28;20150;-58
2022/09/23 01:14:34;;;;;;;34.17;6.85;;;;;;;7.23;100.00;98311.00;5039856;28;20060;-59
2022/09/23 01:17:28;;;;;;;34.65;6.90;;;;;;;7.20;100.00;98305.03;5036649;28;20095;-58
2022/09/23 01:20:04;;;;;;;30.73;6.30;;;;;;;7.74;100.00;98302.03;5019036;28;20481;-59
2022/09/23 01:22:55;;;;;;;32.92;6.93;;;;;;;7.07;100.00;98299.28;5038477;28;20037;-56
2022/09/23 01:25:23;;;;;;;29.67;5.80;;;;;;;8.00;100.00;98297.94;5038159;28;20701;-57
2022/09/23 01:28:16;;;;;;;42.00;7.38;;;;;;;7.49;100.00;98292.25;5038613;28;20046;-58
2022/09/23 01:31:00;;;;;;;43.88;7.85;;;;;;;7.39;100.00;98290.75;5037801;28;20033;-58
2022/09/23 01:33:45;;;;;;;31.27;6.80;;;;;;;7.32;100.00;98294.38;5054065;28;20605;-57
2022/09/23 01:36:40;;;;;;;31.60;6.72;;;;;;;7.40;100.00;98287.25;5037661;28;20088;-60
2022/09/23 01:39:16;;;;;;;35.60;6.15;;;;;;;7.93;100.00;98291.19;5038106;28;20029;-58
2022/09/23 01:42:00;;;;;;;30.45;6.88;;;;;;;7.34;100.00;98287.41;5037552;28;20126;-57
2022/09/23 01:44:50;;;;;;;34.13;6.78;;;;;;;7.62;100.00;98287.59;5039126;28;20375;-58
2022/09/23 01:47:26;;;;;;;28.35;5.55;;;;;;;8.24;100.00;98289.47;5037129;28;20033;-57
2022/09/23 01:50:01;;;;;;;35.05;6.70;;;;;;;8.07;100.00;98289.09;5038109;28;20028;-59
2022/09/23 01:52:35;;;;;;;29.50;6.70;;;;;;;7.39;100.00;98275.19;5035741;28;20132;-59
2022/09/23 01:55:19;;;;;;;35.50;7.18;;;;;;;7.29;100.00;98279.72;5037757;28;20529;-59
2022/09/23 01:57:58;;;;;;;33.65;6.50;;;;;;;7.91;100.00;98275.63;5018810;28;20052;-58
2022/09/23 02:00:28;;;;;;;30.90;6.63;;;;;;;7.09;100.00;98272.41;5019166;28;20029;-62
2022/09/23 02:03:00;;;;;;;31.10;6.45;;;;;;;7.19;100.00;98274.81;5038572;28;20086;-58
2022/09/23 02:05:35;;;;;;;34.70;7.30;;;;;;;6.81;100.00;98274.75;5038311;28;20101;-59
2022/09/23 02:08:04;;;;;;;30.55;6.60;;;;;;;7.49;100.00;98275.81;5037672;28;20179;-61
2022/09/23 02:10:45;;;;;;;26.63;5.80;;;;;;;7.47;100.00;98277.59;5035993;28;20033;-60
2022/09/23 02:13:23;;;;;;;32.42;5.90;;;;;;;7.76;100.00;98284.69;5037742;28;20098;-58
2022/09/23 02:15:53;;;;;;;30.80;6.65;;;;;;;7.30;100.00;98278.00;5035618;28;20029;-58
2022/09/23 02:18:23;;;;;;;37.47;7.57;;;;;;;6.97;100.00;98272.69;5036594;28;20124;-57
2022/09/23 02:20:53;;;;;;;41.20;7.28;;;;;;;7.46;100.00;98281.06;5034776;28;20478;-59
2022/09/23 02:23:26;;;;;;;32.22;6.13;;;;;;;7.79;100.00;98275.94;5037054;28;20033;-58
2022/09/23 02:26:29;;;;;;;27.92;6.18;;;;;;;7.41;100.00;98268.22;5037618;28;20050;-58
2022/09/23 02:29:00;;;;;;;;;;;;;;;7.59;100.00;98276.44;5036910;28;20087;-59
2022/09/23 02:32:03;;;;;;;35.95;7.43;;;;;;;7.40;100.00;98270.84;5035676;28;19967;-58
2022/09/23 02:34:40;;;;;;;34.65;6.55;;;;;;;7.46;100.00;98271.56;5037515;28;20044;-58
2022/09/23 02:37:14;;;;;;;31.33;6.68;;;;;;;7.38;100.00;98265.69;5036925;28;20462;-60
2022/09/23 02:39:48;;;;;;;35.45;6.13;;;;;;;7.97;100.00;98267.69;5035737;28;20029;-59
2022/09/23 02:42:20;;;;;;;26.33;5.25;;;;;;;8.43;100.00;98276.84;5037176;28;20075;-60
2022/09/23 02:44:46;;;;;;;32.03;6.32;;;;;;;7.44;100.00;98262.09;5037890;28;20048;-58
2022/09/23 02:47:11;;;;;;;33.00;6.25;;;;;;;7.52;100.00;98270.56;5037191;28;20041;-59
2022/09/23 02:49:37;;;;;;;35.88;7.32;;;;;;;7.00;100.00;98272.59;5036837;28;20056;-58
2022/09/23 02:52:04;;;;;;;34.15;7.32;;;;;;;6.94;100.00;98271.00;5035605;28;20425;-60
2022/09/23 02:54:32;;;;;;;31.58;6.75;;;;;;;7.27;100.00;98270.28;5035980;28;20032;-61
2022/09/23 02:57:01;;;;;;;31.17;7.05;;;;;;;6.98;100.00;98263.16;5037389;28;20055;-61
2022/09/23 02:59:28;;;;;;;31.48;7.28;;;;;;;6.87;100.00;98263.41;5036069;28;20025;-58
2022/09/23 03:02:19;;;;;;;32.90;7.25;;;;;;;6.70;100.00;98264.59;5035223;28;20102;-58
2022/09/23 03:04:57;;;;;;;33.85;7.15;;;;;;;6.65;100.00;98263.84;5037850;28;20021;-58
2022/09/23 03:07:22;;;;;;;33.53;7.50;;;;;;;7.21;100.00;98266.09;5037267;28;20565;-58
2022/09/23 03:10:10;;;;;;;41.42;7.40;;;;;;;6.79;100.00;98257.53;5037006;28;20044;-58
2022/09/23 03:13:00;;;;;;;28.17;6.00;;;;;;;7.18;100.00;98262.72;5036604;28;20127;-58
2022/09/23 03:15:28;;;;;;;33.58;6.95;;;;;;;7.57;100.00;98268.69;5036068;28;20033;-58
2022/09/23 03:18:07;;;;;;;34.47;7.30;;;;;;;7.28;100.00;98256.44;5037087;28;20036;-58
2022/09/23 03:20:39;;;;;;;45.97;8.60;;;;;;;7.78;100.00;98262.13;5036417;28;20235;-58
2022/09/23 03:23:09;;;;;;;33.22;7.15;;;;;;;6.98;100.00;98257.97;5036836;28;20662;-59
2022/09/23 03:25:38;;;;;;;33.38;7.20;;;;;;;6.98;100.00;98252.78;5035621;28;20060;-60
2022/09/23 03:28:07;;;;;;;29.88;7.07;;;;;;;7.00;100.00;98251.00;5035659;28;20005;-59
2022/09/23 03:30:36;;;;;;;39.65;7.93;;;;;;;6.96;100.00;98250.22;5035548;28;20060;-61
2022/09/23 03:33:08;;;;;;;31.58;7.60;;;;;;;6.83;100.00;98253.97;5036195;28;20529;-58
2022/09/23 03:36:48;;;;;;;35.95;6.60;;;;;;;6.98;100.00;98253.63;5036006;28;20089;-60
2022/09/23 03:38:25;;;;;;;31.65;7.07;;;;;;;6.85;100.00;98252.22;5036412;28;20033;-59
2022/09/23 03:40:54;;;;;;;34.55;7.07;;;;;;;6.94;100.00;98259.78;5035573;28;20125;-58
2022/09/23 03:43:20;;;;;;;37.88;7.85;;;;;;;6.91;100.00;98254.66;5036540;28;20033;-58
2022/09/23 03:45:46;;;;;;;37.20;7.90;;;;;;;6.71;100.00;98248.19;5034949;28;20040;-59
2022/09/23 03:48:13;;;;;;;33.92;7.47;;;;;;;6.82;100.00;98245.38;5037218;28;20434;-60
2022/09/23 03:50:39;;;;;;;47.58;8.00;;;;;;;7.00;100.00;98244.06;5033871;28;20090;-57
2022/09/23 03:53:04;;;;;;;29.58;7.03;;;;;;;6.95;100.00;98243.34;5036809;28;20028;-60
2022/09/23 03:55:31;;;;;;;35.80;7.05;;;;;;;7.13;100.00;98237.75;5036537;28;20044;-58
2022/09/23 03:57:56;;;;;;;35.78;7.20;;;;;;;7.32;100.00;98240.75;5037025;28;20036;-60
2022/09/23 04:00:21;;;;;;;32.33;7.03;;;;;;;6.90;100.00;98242.59;5039965;28;20028;-58
2022/09/23 04:02:48;;;;;;;34.10;7.30;;;;;;;6.98;100.00;98242.41;5040508;28;20029;-58
2022/09/23 04:05:14;;;;;;;33.13;7.05;;;;;;;6.82;100.00;98247.06;5039793;28;20025;-60
2022/09/23 04:07:39;;;;;;;29.67;6.55;;;;;;;6.71;100.00;98232.63;5038449;28;20063;-59
2022/09/23 04:10:05;;;;;;;29.77;6.72;;;;;;;6.85;100.00;98236.66;5040603;28;20443;-58
2022/09/23 04:12:31;;;;;;;45.28;8.00;;;;;;;6.80;100.00;98238.47;5037001;28;20052;-57
2022/09/23 04:14:56;;;;;;;30.85;6.88;;;;;;;7.01;100.00;98229.38;5040659;28;20110;-60
2022/09/23 04:17:22;;;;;;;34.80;5.97;;;;;;;7.66;100.00;98236.44;5040167;28;20068;-61
2022/09/23 04:19:47;;;;;;;34.03;6.95;;;;;;;6.97;100.00;98220.81;5039953;28;20167;-57
2022/09/23 04:22:12;;;;;;;29.52;5.93;;;;;;;6.80;100.00;98228.13;5039336;28;20045;-60
2022/09/23 04:24:38;;;;;;;39.40;7.45;;;;;;;6.36;100.00;98218.69;5039976;28;20543;-58
2022/09/23 04:27:03;;;;;;;32.95;6.72;;;;;;;6.27;100.00;98215.44;5041228;28;20053;-57
2022/09/23 04:29:28;;;;;;;29.95;6.15;;;;;;;6.63;100.00;98216.38;5040476;28;20036;-57
2022/09/23 04:31:54;;;;;;;36.28;6.93;;;;;;;6.37;100.00;98217.78;5040827;28;20056;-60
2022/09/23 04:34:20;;;;;;;34.78;7.03;;;;;;;6.00;100.00;98215.06;5039916;28;20029;-58
2022/09/23 04:36:47;;;;;;;37.47;8.32;;;;;;;5.90;100.00;98214.38;5039615;28;20037;-59
2022/09/23 04:39:14;;;;;;;38.90;7.85;;;;;;;5.93;100.00;98211.69;5039907;28;20678;-60
2022/09/23 04:41:39;;;;;;;32.35;6.63;;;;;;;5.95;100.00;98209.97;5038748;28;20095;-60
2022/09/23 04:44:05;;;;;;;40.72;7.60;;;;;;;5.95;100.00;98207.38;5039815;28;20462;-60
2022/09/23 04:46:30;;;;;;;45.40;8.15;;;;;;;5.88;100.00;98204.91;5038590;28;20729;-60
2022/09/23 04:48:56;;;;;;;34.33;6.82;;;;;;;6.03;100.00;98208.97;5037899;28;20017;-58
2022/09/23 04:51:24;;;;;;;31.48;6.97;;;;;;;5.68;100.00;98213.91;5038081;28;20033;-58
2022/09/23 04:53:51;;;;;;;34.28;7.20;;;;;;;5.65;100.00;98215.69;5039870;28;20036;-58
2022/09/23 04:56:19;;;;;;;29.35;6.53;;;;;;;5.55;100.00;98215.88;5038714;28;20631;-59
2022/09/23 04:58:45;;;;;;;38.17;7.40;;;;;;;5.80;100.00;98207.66;5040614;28;20095;-58
2022/09/23 05:01:14;;;;;;;34.33;7.15;;;;;;;5.69;100.00;98214.75;5037792;28;20118;-57
2022/09/23 05:03:39;;;;;;;32.40;7.22;;;;;;;5.53;100.00;98211.56;5039006;28;20040;-59
2022/09/23 05:06:06;;;;;;;34.25;8.02;;;;;;;5.43;100.00;98213.47;5039046;28;20037;-59
2022/09/23 05:08:32;;;;;;;38.55;7.93;;;;;;;5.15;100.00;98210.50;5037945;28;20666;-57
2022/09/23 05:10:59;;;;;;;34.10;6.80;;;;;;;5.41;100.00;98217.81;5037314;28;20029;-57
2022/09/23 05:13:25;;;;;;;37.35;7.70;;;;;;;5.43;100.00;98217.81;5039015;28;20025;-60
2022/09/23 05:16:00;;;;;;;36.58;7.40;;;;;;;5.44;100.00;98217.78;5039401;28;20047;-61
2022/09/23 05:18:26;;;;;;;48.72;8.65;;;;;;;5.30;100.00;98222.31;5035791;28;20057;-58
2022/09/23 05:20:53;;;;;;;40.40;7.72;;;;;;;5.33;100.00;98219.66;5036020;28;20067;-58
2022/09/23 05:23:19;;;;;;;38.33;7.30;;;;;;;5.65;100.00;98218.28;5039588;28;20029;-57
2022/09/23 05:25:45;;;;;;;37.38;7.55;;;;;;;5.78;100.00;98209.41;5038855;28;20052;-58
2022/09/23 05:28:10;;;;;;;33.92;6.78;;;;;;;5.91;100.00;98212.63;5040167;28;20019;-58
2022/09/23 05:30:35;;;;;;;47.65;8.80;;;;;;;6.13;100.00;98216.53;5038434;28;20032;-57
2022/09/23 05:33:01;;;;;;;29.63;6.88;;;;;;;6.50;100.00;98220.13;5039083;28;20033;-57
2022/09/23 05:35:27;;;;;;;40.75;7.68;;;;;;;6.50;100.00;98218.38;5038400;28;20043;-57
2022/09/23 05:37:52;;;;;;;32.47;7.40;;;;;;;6.74;100.00;98224.75;5039353;28;20020;-57
2022/09/23 05:40:17;;;;;;;37.45;8.13;;;;;;;7.21;100.00;98223.75;5037002;28;20991;-58
2022/09/23 05:42:43;;;;;;;37.28;8.07;;;;;;;6.96;100.00;98226.88;5036607;28;20032;-58
2022/09/23 05:45:08;;;;;;;33.45;8.48;;;;;;;7.22;100.00;98215.88;5037511;28;20091;-56
2022/09/23 05:47:33;;;;;;;39.55;9.05;;;;;;;7.49;100.00;98219.56;5038680;28;20025;-58
2022/09/23 05:49:59;;;;;;;39.58;8.55;;;;;;;8.20;100.00;98224.66;5037808;28;20032;-57
2022/09/23 05:52:24;;;;;;;34.95;8.27;;;;;;;7.93;100.00;98218.47;5037854;28;20160;-58
2022/09/23 05:54:50;;;;;;;38.90;8.45;;;;;;;8.17;100.00;98216.94;5037769;28;20514;-57
2022/09/23 05:57:15;;;;;;;27.10;7.38;;;;;;;8.54;100.00;98216.75;5038487;28;20045;-59
2022/09/23 05:59:46;;;;;;;36.15;9.40;;;;;;;9.30;100.00;98217.91;5037988;28;20127;-59
2022/09/23 06:02:11;;;;;;;76.07;13.00;;;;;;;10.32;100.00;98224.88;5035239;28;20049;-60
2022/09/23 06:04:36;;;;;;;30.92;8.00;;;;;;;10.54;100.00;98219.72;5039049;28;20053;-58
2022/09/23 06:07:02;;;;;;;28.95;7.57;;;;;;;10.85;100.00;98224.63;5036894;28;20239;-58
2022/09/23 06:09:27;;;;;;;31.23;7.35;;;;;;;11.32;100.00;98215.81;5037585;28;20132;-58
2022/09/23 06:11:53;;;;;;;35.97;7.53;;;;;;;11.64;100.00;98211.91;5037714;28;20033;-58
2022/09/23 06:14:18;;;;;;;24.23;6.20;;;;;;;12.27;100.00;98203.13;5039622;28;20063;-58
2022/09/23 06:16:43;;;;;;;23.52;6.40;;;;;;;12.86;100.00;98190.84;5036150;28;20036;-58
2022/09/23 06:19:09;;;;;;;29.20;6.68;;;;;;;13.68;100.00;98191.22;5035870;28;20773;-58
2022/09/23 06:21:37;;;;;;;24.98;6.40;;;;;;;13.14;100.00;98193.00;5035384;28;20092;-57
2022/09/23 06:24:03;;;;;;;35.17;7.18;;;;;;;13.74;100.00;98184.81;5038309;28;20925;-60
2022/09/23 06:26:32;;;;;;;27.88;6.63;;;;;;;14.28;100.00;98187.28;5036711;28;20068;-61
2022/09/23 06:28:58;;;;;;;25.10;6.35;;;;;;;14.52;100.00;98181.63;5037315;28;20025;-58
2022/09/23 06:31:23;;;;;;;27.42;6.28;;;;;;;15.58;100.00;98187.06;5036743;28;20732;-58
2022/09/23 06:33:48;;;;;;;26.90;6.57;;;;;;;15.79;100.00;98189.41;5037872;28;20027;-58
2022/09/23 06:36:14;;;;;;;27.05;6.88;;;;;;;16.62;100.00;98192.25;5037202;28;20044;-58
2022/09/23 06:38:43;;;;;;;19.88;5.95;;;;;;;17.27;100.00;98182.91;5037228;28;20037;-58
2022/09/23 06:41:09;;;;;;;22.65;6.05;;;;;;;18.72;100.00;98202.97;5033748;28;20509;-62
2022/09/23 06:43:35;;;;;;;19.17;5.80;;;;;;;18.97;96.67;98199.44;5031147;28;20033;-59
2022/09/23 06:46:02;;;;;;;27.13;6.20;;;;;;;19.43;83.44;98198.72;5035626;28;20087;-60
2022/09/23 06:48:29;;;;;;;22.73;5.57;;;;;;;19.19;83.45;98198.72;5037667;28;20067;-59
2022/09/23 06:50:58;;;;;;;19.35;5.53;;;;;;;21.31;73.26;98196.59;5036061;28;20043;-59
2022/09/23 06:53:24;;;;;;;21.48;5.78;;;;;;;21.81;71.31;98199.53;5036497;28;20036;-62
2022/09/23 06:56:07;;;;;;;18.27;5.30;;;;;;;23.11;62.36;98199.88;5028618;28;20032;-62
2022/09/23 06:58:35;;;;;;;20.25;5.40;;;;;;;22.02;64.18;98191.56;5038401;28;20033;-60
2022/09/23 07:01:09;;;;;;;17.33;5.65;;;;;;;21.11;61.69;98200.84;5036550;28;20037;-62
2022/09/23 07:03:35;;;;;;;17.02;5.68;;;;;;;21.41;62.52;98196.66;5026681;28;20031;-62
2022/09/23 07:06:00;;;;;;;15.00;5.28;;;;;;;24.21;57.60;98194.25;5038422;28;20037;-59
2022/09/23 07:08:28;;;;;;;14.60;4.90;;;;;;;22.75;57.63;98199.47;5039437;28;20067;-61
2022/09/23 07:10:55;;;;;;;16.02;5.43;;;;;;;23.14;58.43;98194.31;5037931;28;20531;-61
2022/09/23 07:13:21;;;;;;;16.77;5.10;;;;;;;24.23;52.24;98191.44;5037550;28;20112;-63
2022/09/23 07:15:57;;;;;;;14.80;5.22;;;;;;;23.88;54.28;98195.59;5037087;28;20037;-61
2022/09/23 07:18:24;;;;;;;12.90;4.90;;;;;;;24.25;53.77;98186.81;5035508;28;20103;-61
2022/09/23 07:20:53;;;;;;;17.80;5.70;;;;;;;24.55;50.47;98190.22;5036523;28;20029;-61
2022/09/23 07:23:19;;;;;;;13.27;5.20;;;;;;;25.08;49.02;98189.53;5039158;28;20411;-63
2022/09/23 07:25:49;;;;;;;13.77;5.20;;;;;;;23.53;53.52;98182.84;5038958;28;20561;-61
2022/09/23 07:28:15;;;;;;;14.23;5.00;;;;;;;24.53;52.45;98179.72;5039242;28;20025;-64
2022/09/23 07:30:40;;;;;;;16.70;5.78;;;;;;;26.36;47.18;98176.78;5038485;28;20118;-60
2022/09/23 07:33:06;;;;;;;15.88;5.45;;;;;;;26.52;46.30;98184.03;5038151;28;20091;-59
2022/09/23 07:35:32;;;;;;;10.98;4.63;;;;;;;26.05;45.19;98179.94;5039030;28;20541;-60
2022/09/23 07:37:58;;;;;;;13.80;4.68;;;;;;;26.19;46.13;98181.16;5040465;28;20021;-63
2022/09/23 07:40:24;;;;;;;11.40;4.53;;;;;;;27.24;44.14;98183.63;5039859;28;20060;-60
2022/09/23 07:42:49;;;;;;;9.70;4.35;;;;;;;26.34;44.66;98190.31;5038465;28;20021;-62
2022/09/23 07:45:14;;;;;;;10.13;4.18;;;;;;;26.82;44.37;98181.88;5041902;28;20470;-62
2022/09/23 07:47:40;;;;;;;10.43;4.25;;;;;;;26.49;43.83;98187.03;5042222;28;20021;-61
2022/09/23 07:50:10;;;;;;;11.30;4.45;;;;;;;27.38;42.47;98183.00;5041437;28;20395;-62
2022/09/23 07:52:36;;;;;;;10.13;3.80;;;;;;;28.36;40.90;98176.78;5042007;28;20136;-61
2022/09/23 07:55:03;;;;;;;9.77;4.60;;;;;;;26.81;44.27;98180.16;5041987;28;20253;-60
2022/09/23 07:57:28;;;;;;;11.48;3.95;;;;;;;26.25;44.85;98180.56;5042085;28;20083;-60
2022/09/23 07:59:53;;;;;;;11.77;4.18;;;;;;;26.93;43.38;98173.53;5042806;28;20143;-60
2022/09/23 08:02:19;;;;;;;8.82;4.00;;;;;;;27.84;42.00;98182.53;5039841;28;20060;-61
2022/09/23 08:04:45;;;;;;;12.60;4.22;;;;;;;28.25;42.07;98175.31;5043058;28;20140;-60
2022/09/23 08:07:12;;;;;;;9.32;3.80;;;;;;;28.62;39.63;98171.19;5041736;28;20544;-61
2022/09/23 08:09:40;;;;;;;8.30;3.25;;;;;;;29.06;37.94;98167.13;5041231;28;20504;-60
2022/09/23 08:12:11;;;;;;;7.70;3.30;;;;;;;27.39;37.87;98170.47;5041344;28;20037;-61
2022/09/23 08:14:37;;;;;;;7.72;3.20;;;;;;;27.03;39.06;98163.50;5042658;28;20445;-61
2022/09/23 08:17:03;;;;;;;9.25;3.50;;;;;;;25.76;38.05;98174.84;5042145;28;20076;-61
2022/09/23 08:19:28;;;;;;;12.75;3.80;;;;;;;24.42;43.00;98169.22;5040177;28;20025;-60
2022/09/23 08:21:54;;;;;;;10.25;3.55;;;;;;;23.84;45.81;98168.41;5056704;28;20043;-60
2022/09/23 08:24:22;;;;;;;9.40;3.38;;;;;;;26.72;40.06;98174.81;5042293;28;20036;-62
2022/09/23 08:26:52;;;;;;;9.57;3.53;;;;;;;28.35;36.62;98168.91;5040957;28;20033;-58
2022/09/23 08:29:19;;;;;;;11.15;3.92;;;;;;;25.46;40.66;98158.25;5041186;28;20028;-58
2022/09/23 08:31:45;;;;;;;12.40;3.95;;;;;;;24.79;40.99;98161.22;5035479;28;20542;-59
2022/09/23 08:34:10;;;;;;;11.10;3.30;;;;;;;27.01;37.92;98162.84;5039061;28;20538;-59
2022/09/23 08:36:36;;;;;;;10.50;3.25;;;;;;;29.24;34.72;98163.34;5039699;28;20127;-60
2022/09/23 08:39:02;;;;;;;10.07;3.47;;;;;;;28.87;36.01;98157.66;5041067;28;20029;-63
2022/09/23 08:41:42;;;;;;;7.65;2.90;;;;;;;27.90;40.99;98163.13;5040810;28;20071;-59
2022/09/23 08:44:15;;;;;;;7.13;2.90;;;;;;;27.93;37.57;98148.56;5042361;28;20035;-60
2022/09/23 08:47:10;;;;;;;8.25;3.10;;;;;;;29.49;38.58;98155.94;5040652;28;20061;-62
2022/09/23 08:49:40;;;;;;;8.70;3.85;;;;;;;23.81;42.76;98149.19;5040273;28;20122;-60
2022/09/23 08:52:12;;;;;;;8.30;3.58;;;;;;;26.30;39.17;98145.31;5040618;28;20846;-59
2022/09/23 08:54:38;;;;;;;12.20;4.13;;;;;;;21.70;46.49;98147.31;5042185;28;20033;-61
2022/09/23 08:57:04;;;;;;;10.68;3.65;;;;;;;22.83;45.61;98149.13;5040777;28;20321;-59
2022/09/23 08:59:40;;;;;;;13.70;3.80;;;;;;;24.30;43.17;98144.56;5039642;28;20534;-60
2022/09/23 09:02:14;;;;;;;12.38;4.10;;;;;;;23.18;45.07;98142.47;5036287;28;20757;-62
2022/09/23 09:04:44;;;;;;;9.93;3.45;;;;;;;24.22;44.30;98147.13;5038838;28;20574;-59
2022/09/23 09:07:16;;;;;;;10.05;3.60;;;;;;;23.40;45.15;98137.88;5039167;28;20037;-59
2022/09/23 09:09:53;;;;;;;11.48;3.90;;;;;;;25.62;41.70;98135.31;5040753;28;20033;-59
2022/09/23 09:12:31;;;;;;;11.88;3.78;;;;;;;23.65;44.91;98129.31;5036925;28;20051;-60
2022/09/23 09:15:06;;;;;;;15.23;4.40;;;;;;;22.86;47.21;98130.22;5036742;28;20086;-61
2022/09/23 09:17:47;;;;;;;10.40;3.67;;;;;;;24.03;44.26;98127.53;5039813;28;20055;-60
2022/09/23 09:20:40;;;;;;;12.32;3.80;;;;;;;24.95;42.20;98127.69;5040228;28;20029;-59
2022/09/23 09:23:20;;;;;;;19.48;3.97;;;;;;;22.85;45.14;98136.53;5040981;28;20565;-61
2022/09/23 09:25:56;;;;;;;12.93;3.83;;;;;;;23.44;44.40;98125.97;5039599;28;20033;-59
2022/09/23 09:28:37;;;;;;;11.13;3.42;;;;;;;24.92;42.72;98111.97;5038032;28;20049;-59
2022/09/23 09:31:42;;;;;;;11.68;3.72;;;;;;;23.96;41.92;98120.28;5032536;28;20075;-60
2022/09/23 09:34:20;;;;;;;13.30;3.92;;;;;;;24.22;42.18;98116.00;5017133;28;20045;-60
2022/09/23 09:37:04;;;;;;;11.27;3.40;;;;;;;25.52;39.99;98103.38;5017840;28;20052;-59
2022/09/23 09:39:31;;;;;;;14.77;4.20;;;;;;;25.12;40.79;98102.81;5033145;28;20045;-59
2022/09/23 09:41:58;;;;;;;10.48;3.50;;;;;;;25.28;40.45;98107.50;5040143;28;20052;-59
2022/09/23 09:44:48;;;;;;;13.07;3.85;;;;;;;25.02;39.45;98102.09;5038187;28;20056;-59
2022/09/23 09:47:32;;;;;;;11.05;3.42;;;;;;;24.10;40.58;98106.50;5038042;28;20110;-63
2022/09/23 09:50:20;;;;;;;21.77;3.40;;;;;;;22.37;43.91;98100.03;5038839;28;20311;-59
2022/09/23 09:52:47;;;;;;;11.60;3.40;;;;;;;25.09;40.38;98103.16;5037177;28;20654;-61
2022/09/23 09:55:12;;;;;;;11.40;3.47;;;;;;;24.51;41.08;98103.50;5040613;28;20093;-63
2022/09/23 09:57:44;;;;;;;12.47;3.47;;;;;;;24.58;40.53;98101.97;5039591;28;20020;-61
2022/09/23 10:00:26;;;;;;;13.18;3.25;;;;;;;24.14;40.93;98091.88;5034836;28;20275;-61
2022/09/23 10:03:12;;;;;;;16.85;4.13;;;;;;;26.96;38.35;98082.19;5036428;28;20514;-59
2022/09/23 10:05:46;;;;;;;18.15;4.35;;;;;;;22.99;43.32;98083.91;5034753;28;20047;-59
2022/09/23 10:08:17;;;;;;;14.85;3.75;;;;;;;24.24;41.86;98070.50;5039268;28;20033;-59
2022/09/23 10:11:00;;;;;;;24.95;5.07;;;;;;;23.94;40.04;98074.31;5033983;28;20465;-60
2022/09/23 10:13:29;;;;;;;19.67;4.65;;;;;;;23.86;39.85;98077.69;5038723;28;20108;-61
2022/09/23 10:15:56;;;;;;;28.00;5.60;;;;;;;23.42;39.51;98072.03;5039781;28;20083;-59
2022/09/23 10:18:30;;;;;;;28.10;5.40;;;;;;;22.99;40.43;98066.13;5036081;28;20036;-59
2022/09/23 10:21:06;;;;;;;22.05;4.85;;;;;;;24.63;38.48;98060.50;5032716;28;20190;-59
2022/09/23 10:23:32;;;;;;;11.43;3.13;;;;;;;22.37;40.48;98067.28;5036230;28;20021;-59
2022/09/23 10:26:01;;;;;;;15.70;4.03;;;;;;;22.20;42.25;98060.78;5035968;28;20045;-61
2022/09/23 10:28:31;;;;;;;16.73;4.90;;;;;;;22.79;43.45;98062.63;5039307;28;20028;-61
2022/09/23 10:31:24;;;;;;;34.17;5.65;;;;;;;22.44;42.35;98063.09;5062099;27;20419;-61
2022/09/23 10:33:53;;;;;;;23.48;4.78;;;;;;;23.61;40.41;98063.16;5039183;28;20032;-61
2022/09/23 10:36:19;;;;;;;22.20;4.43;;;;;;;23.57;41.88;98064.44;5040847;28;20048;-61
2022/09/23 10:38:48;;;;;;;16.48;4.00;;;;;;;23.78;41.97;98061.56;5042567;28;20024;-59
2022/09/23 10:47:40;;;;;;;20.92;4.40;;;;;;;21.38;43.53;98050.00;5042948;28;20647;-62
2022/09/23 10:50:15;;;;;;;17.23;3.63;;;;;;;23.00;40.52;98032.41;5044248;28;20087;-59
2022/09/23 10:52:50;;;;;;;22.75;4.43;;;;;;;22.98;41.83;98029.03;5041666;28;20056;-60
2022/09/23 10:55:18;;;;;;;25.13;4.97;;;;;;;22.14;44.52;98025.81;5041525;28;20116;-61
2022/09/23 10:57:43;;;;;;;18.50;4.00;;;;;;;23.85;42.34;98031.56;5042594;28;20749;-60
2022/09/23 11:00:26;;;;;;;16.58;3.67;;;;;;;21.54;43.03;98028.38;5040043;28;20111;-59
2022/09/23 11:03:30;;;;;;;23.00;4.50;;;;;;;22.29;39.75;98028.94;5039134;28;20025;-59
2022/09/23 11:06:28;;;;;;;17.75;3.80;;;;;;;22.27;40.54;98019.44;5041328;28;20044;-58
2022/09/23 11:09:29;;;;;;;20.30;3.85;;;;;;;22.70;39.59;98023.59;5045234;28;20027;-59
2022/09/23 11:12:11;;;;;;;20.10;3.55;;;;;;;22.37;39.22;98030.94;5040938;28;20045;-58
2022/09/23 11:15:15;;;;;;;21.38;4.15;;;;;;;22.52;40.56;98016.28;5043375;28;20068;-62
2022/09/23 11:18:10;;;;;;;15.82;3.47;;;;;;;22.72;41.45;98021.63;5040092;28;20041;-59
2022/09/23 11:20:46;;;;;;;25.65;4.68;;;;;;;23.07;40.18;98012.28;5040592;28;20044;-58
2022/09/23 11:23:20;;;;;;;19.92;3.72;;;;;;;22.39;40.02;98015.69;5044210;28;20037;-57
2022/09/23 11:25:53;;;;;;;21.60;4.28;;;;;;;22.33;41.50;98013.56;5049382;28;20037;-58
2022/09/23 11:28:36;;;;;;;20.63;3.92;;;;;;;21.63;41.04;98008.13;5043329;28;20020;-57
2022/09/23 11:31:11;;;;;;;17.42;3.63;;;;;;;21.99;40.89;97997.94;5038560;28;20604;-59
2022/09/23 11:33:37;;;;;;;19.75;4.13;;;;;;;21.13;42.48;98002.66;5039263;28;20689;-58
2022/09/23 11:36:11;;;;;;;46.22;5.28;;;;;;;21.83;42.85;97993.13;5041391;28;20067;-58
2022/09/23 11:38:42;;;;;;;11.95;2.92;;;;;;;21.55;42.42;97981.44;5040943;28;20021;-58
2022/09/23 11:41:17;;;;;;;19.17;3.90;;;;;;;21.03;42.91;97986.69;5037595;28;20041;-58
2022/09/23 11:43:50;;;;;;;22.17;4.10;;;;;;;20.64;42.59;97975.81;5028589;28;20555;-58
2022/09/23 11:46:40;;;;;;;17.13;3.60;;;;;;;21.18;42.12;97984.56;5026539;28;20130;-58
2022/09/23 11:49:36;;;;;;;25.10;4.47;;;;;;;20.86;43.33;97980.16;5027397;28;20414;-58